createdAt,value
2023-01-30T00:00:18.718Z,7.13
2023-01-30T00:01:22.198Z,5.97
2023-01-30T00:02:24.243Z,6.25
2023-01-30T00:03:26.732Z,5.80
2023-01-30T00:04:28.781Z,5.15
2023-01-30T00:05:30.848Z,4.40
2023-01-30T00:06:33.075Z,5.18
2023-01-30T00:07:35.109Z,4.60
2023-01-30T00:08:37.152Z,5.38
2023-01-30T00:09:39.166Z,5.15
2023-01-30T00:10:41.273Z,5.25
2023-01-30T00:11:43.317Z,5.50
2023-01-30T00:12:45.364Z,4.50
2023-01-30T00:13:51.136Z,4.63
2023-01-30T00:14:53.164Z,4.25
2023-01-30T00:15:55.233Z,4.43
2023-01-30T00:16:57.451Z,4.63
2023-01-30T00:17:59.592Z,5.22
2023-01-30T00:19:01.968Z,5.40
2023-01-30T00:20:04.528Z,4.57
2023-01-30T00:21:07.891Z,4.80
2023-01-30T00:22:10.042Z,5.25
2023-01-30T00:23:12.070Z,5.30
2023-01-30T00:24:14.383Z,5.32
2023-01-30T00:25:16.777Z,5.70
2023-01-30T00:26:19.012Z,5.75
2023-01-30T00:27:21.053Z,5.53
2023-01-30T00:28:23.551Z,5.47
2023-01-30T00:29:25.654Z,5.30
2023-01-30T00:30:30.242Z,5.72
2023-01-30T00:31:33.204Z,5.55
2023-01-30T00:32:35.584Z,6.05
2023-01-30T00:33:38.827Z,4.88
2023-01-30T00:34:40.961Z,4.78
2023-01-30T00:35:45.957Z,5.80
2023-01-30T00:36:58.872Z,5.10
2023-01-30T00:38:08.589Z,4.75
2023-01-30T00:39:10.617Z,4.63
2023-01-30T00:40:12.767Z,4.68
2023-01-30T00:41:15.632Z,4.22
2023-01-30T00:42:36.335Z,4.75
2023-01-30T00:43:56.823Z,4.60
2023-01-30T00:45:17.735Z,4.47
2023-01-30T00:46:48.856Z,5.07
2023-01-30T00:47:50.887Z,4.10
2023-01-30T00:48:53.086Z,4.03
2023-01-30T00:49:55.117Z,3.92
2023-01-30T00:50:57.251Z,4.75
2023-01-30T00:51:59.246Z,4.57
2023-01-30T00:53:01.230Z,4.43
2023-01-30T00:54:03.376Z,4.03
2023-01-30T00:55:07.023Z,11.82
2023-01-30T00:56:09.078Z,5.18
2023-01-30T00:57:11.059Z,5.25
2023-01-30T00:58:13.620Z,10.55
2023-01-30T00:59:15.645Z,5.00
2023-01-30T01:00:18.330Z,12.45
2023-01-30T01:01:20.337Z,9.50
2023-01-30T01:02:22.413Z,15.23
2023-01-30T01:03:24.491Z,7.68
2023-01-30T01:04:27.768Z,7.55
2023-01-30T01:05:29.866Z,8.35
2023-01-30T01:06:32.107Z,6.55
2023-01-30T01:07:34.163Z,5.88
2023-01-30T01:08:36.259Z,7.97
2023-01-30T01:09:38.286Z,7.45
2023-01-30T01:10:40.549Z,6.95
2023-01-30T01:11:42.563Z,6.15
2023-01-30T01:12:44.993Z,6.28
2023-01-30T01:13:48.003Z,6.43
2023-01-30T01:14:51.214Z,5.75
2023-01-30T01:15:53.998Z,5.30
2023-01-30T01:16:56.377Z,5.75
2023-01-30T01:17:58.396Z,5.60
2023-01-30T01:19:02.668Z,6.63
2023-01-30T01:20:05.693Z,6.85
2023-01-30T01:21:08.136Z,7.00
2023-01-30T01:22:10.533Z,6.03
2023-01-30T01:23:13.076Z,5.60
2023-01-30T01:24:16.118Z,6.45
2023-01-30T01:25:19.863Z,5.57
2023-01-30T01:26:22.300Z,5.85
2023-01-30T01:27:24.864Z,6.65
2023-01-30T01:28:27.386Z,7.30
2023-01-30T01:29:29.712Z,7.18
2023-01-30T01:30:33.620Z,6.15
2023-01-30T01:31:35.668Z,6.00
2023-01-30T01:32:37.829Z,6.35
2023-01-30T01:33:40.283Z,6.50
2023-01-30T01:34:42.781Z,6.70
2023-01-30T01:35:48.079Z,6.45
2023-01-30T01:36:54.454Z,7.07
2023-01-30T01:37:57.277Z,6.80
2023-01-30T01:38:59.883Z,7.35
2023-01-30T01:40:20.923Z,7.70
2023-01-30T01:41:23.204Z,7.57
2023-01-30T01:42:27.158Z,7.60
2023-01-30T01:43:31.211Z,7.38
2023-01-30T01:44:53.581Z,7.88
2023-01-30T01:45:58.736Z,7.07
2023-01-30T01:47:01.948Z,7.65
2023-01-30T01:48:20.887Z,7.18
2023-01-30T01:49:24.152Z,7.00
2023-01-30T01:50:40.987Z,7.30
2023-01-30T01:51:48.595Z,7.18
2023-01-30T01:52:53.326Z,7.45
2023-01-30T01:54:00.583Z,7.03
2023-01-30T01:55:04.619Z,7.28
2023-01-30T01:56:08.034Z,8.68
2023-01-30T01:57:13.496Z,8.13
2023-01-30T01:58:23.670Z,8.32
2023-01-30T01:59:30.641Z,7.03
2023-01-30T02:00:33.240Z,7.25
2023-01-30T02:01:35.413Z,6.13
2023-01-30T02:02:38.425Z,6.25
2023-01-30T02:03:42.735Z,6.80
2023-01-30T02:05:02.559Z,6.82
2023-01-30T02:06:06.095Z,6.18
2023-01-30T02:07:09.171Z,6.85
2023-01-30T02:08:17.325Z,6.78
2023-01-30T02:09:19.339Z,7.38
2023-01-30T02:10:23.782Z,6.70
2023-01-30T02:11:35.118Z,6.22
2023-01-30T02:12:40.892Z,6.20
2023-01-30T02:13:44.797Z,5.85
2023-01-30T02:14:47.663Z,6.50
2023-01-30T02:15:51.760Z,6.43
2023-01-30T02:16:53.734Z,7.25
2023-01-30T02:17:55.822Z,6.95
2023-01-30T02:18:58.109Z,6.18
2023-01-30T02:20:12.535Z,5.75
2023-01-30T02:21:27.935Z,5.90
2023-01-30T02:22:36.983Z,6.18
2023-01-30T02:23:48.540Z,5.95
2023-01-30T02:24:50.662Z,4.85
2023-01-30T02:26:18.269Z,5.50
2023-01-30T02:27:38.435Z,5.57
2023-01-30T02:28:58.769Z,5.15
2023-01-30T02:30:19.227Z,5.35
2023-01-30T02:31:41.605Z,4.53
2023-01-30T02:32:47.612Z,4.45
2023-01-30T02:33:58.256Z,4.82
2023-01-30T02:35:05.861Z,5.10
2023-01-30T02:36:25.765Z,5.07
2023-01-30T02:37:46.396Z,4.70
2023-01-30T02:38:54.498Z,4.80
2023-01-30T02:39:59.163Z,5.15
2023-01-30T02:41:19.030Z,5.93
2023-01-30T02:42:30.366Z,4.70
2023-01-30T02:43:44.519Z,5.40
2023-01-30T02:45:03.708Z,4.93
2023-01-30T02:46:09.515Z,4.90
2023-01-30T02:47:14.172Z,4.75
2023-01-30T02:48:23.232Z,4.53
2023-01-30T02:49:31.048Z,5.05
2023-01-30T02:50:53.825Z,4.57
2023-01-30T02:51:56.911Z,4.38
2023-01-30T02:52:59.578Z,4.18
2023-01-30T02:54:01.587Z,5.07
2023-01-30T02:55:10.926Z,4.63
2023-01-30T02:56:13.488Z,5.35
2023-01-30T02:57:18.840Z,4.97
2023-01-30T02:58:23.096Z,5.18
2023-01-30T02:59:30.238Z,5.22
2023-01-30T03:00:51.044Z,5.45
2023-01-30T03:01:53.146Z,5.18
2023-01-30T03:03:10.123Z,5.80
2023-01-30T03:04:32.891Z,5.78
2023-01-30T03:05:53.921Z,5.88
2023-01-30T03:07:21.012Z,5.15
2023-01-30T03:08:28.859Z,5.93
2023-01-30T03:09:50.929Z,5.05
2023-01-30T03:10:58.840Z,5.30
2023-01-30T03:12:04.033Z,5.70
2023-01-30T03:13:16.686Z,5.47
2023-01-30T03:14:23.889Z,6.00
2023-01-30T03:15:25.925Z,4.68
2023-01-30T03:16:33.395Z,5.55
2023-01-30T03:17:36.956Z,5.25
2023-01-30T03:18:42.666Z,5.45
2023-01-30T03:19:44.975Z,5.88
2023-01-30T03:20:47.264Z,5.05
2023-01-30T03:21:49.389Z,5.32
2023-01-30T03:22:53.530Z,5.18
2023-01-30T03:23:55.659Z,6.10
2023-01-30T03:24:57.875Z,5.55
2023-01-30T03:26:00.692Z,5.65
2023-01-30T03:27:05.893Z,5.00
2023-01-30T03:28:08.503Z,5.57
2023-01-30T03:29:10.513Z,5.38
2023-01-30T03:30:13.003Z,5.45
2023-01-30T03:31:16.642Z,4.65
2023-01-30T03:32:18.693Z,4.72
2023-01-30T03:33:20.765Z,5.00
2023-01-30T03:34:24.039Z,4.97
2023-01-30T03:35:26.228Z,5.45
2023-01-30T03:36:28.471Z,5.38
2023-01-30T03:37:31.574Z,5.53
2023-01-30T03:38:34.482Z,5.40
2023-01-30T03:39:36.604Z,5.10
2023-01-30T03:40:40.385Z,4.88
2023-01-30T03:41:42.480Z,4.50
2023-01-30T03:42:44.592Z,5.05
2023-01-30T03:43:46.702Z,4.88
2023-01-30T03:44:50.533Z,6.35
2023-01-30T03:45:52.682Z,4.85
2023-01-30T03:46:54.734Z,5.30
2023-01-30T03:47:58.257Z,5.18
2023-01-30T03:49:00.344Z,4.70
2023-01-30T03:50:02.605Z,4.32
2023-01-30T03:51:06.262Z,4.13
2023-01-30T03:52:08.834Z,5.03
2023-01-30T03:53:11.157Z,4.28
2023-01-30T03:54:13.189Z,4.82
2023-01-30T03:55:15.824Z,4.47
2023-01-30T03:56:18.629Z,5.15
2023-01-30T03:57:20.728Z,4.95
2023-01-30T03:58:22.846Z,4.40
2023-01-30T03:59:25.715Z,4.00
2023-01-30T04:00:35.926Z,4.18
2023-01-30T04:01:38.212Z,4.47
2023-01-30T04:02:40.601Z,5.47
2023-01-30T04:03:42.662Z,4.70
2023-01-30T04:04:44.709Z,4.40
2023-01-30T04:05:46.965Z,4.30
2023-01-30T04:06:49.306Z,5.22
2023-01-30T04:07:51.792Z,5.97
2023-01-30T04:08:54.562Z,7.93
2023-01-30T04:10:08.701Z,8.07
2023-01-30T04:11:11.519Z,6.82
2023-01-30T04:12:14.068Z,6.32
2023-01-30T04:13:24.834Z,6.38
2023-01-30T04:14:27.012Z,6.63
2023-01-30T04:15:47.446Z,7.20
2023-01-30T04:17:09.813Z,7.13
2023-01-30T04:18:30.541Z,5.97
2023-01-30T04:19:38.023Z,6.18
2023-01-30T04:20:40.106Z,5.82
2023-01-30T04:21:42.226Z,5.40
2023-01-30T04:22:44.405Z,6.60
2023-01-30T04:23:46.634Z,5.28
2023-01-30T04:24:49.321Z,4.82
2023-01-30T04:25:51.772Z,4.90
2023-01-30T04:26:56.041Z,4.65
2023-01-30T04:27:58.294Z,5.18
2023-01-30T04:29:04.772Z,5.32
2023-01-30T04:30:07.455Z,5.85
2023-01-30T04:31:09.509Z,5.60
2023-01-30T04:32:15.824Z,5.38
2023-01-30T04:33:17.799Z,5.35
2023-01-30T04:34:20.116Z,5.80
2023-01-30T04:35:22.214Z,5.80
2023-01-30T04:36:24.359Z,7.28
2023-01-30T04:37:26.430Z,7.97
2023-01-30T04:38:28.937Z,6.65
2023-01-30T04:39:30.918Z,6.35
2023-01-30T04:40:32.980Z,6.95
2023-01-30T04:41:36.242Z,5.55
2023-01-30T04:42:38.321Z,6.60
2023-01-30T04:44:12.816Z,6.20
2023-01-30T04:45:31.368Z,5.15
2023-01-30T04:46:33.358Z,5.78
2023-01-30T04:47:35.469Z,5.82
2023-01-30T04:48:37.561Z,6.32
2023-01-30T04:49:39.632Z,4.90
2023-01-30T04:50:43.110Z,5.38
2023-01-30T04:51:45.276Z,4.93
2023-01-30T04:52:47.333Z,6.15
2023-01-30T04:53:49.461Z,5.07
2023-01-30T04:54:51.588Z,5.57
2023-01-30T04:55:53.684Z,4.53
2023-01-30T04:56:56.676Z,4.32
2023-01-30T04:57:58.999Z,4.03
2023-01-30T04:59:01.149Z,4.32
2023-01-30T05:00:08.379Z,5.20
2023-01-30T05:01:17.477Z,4.07
2023-01-30T05:02:20.178Z,4.70
2023-01-30T05:03:23.371Z,4.15
2023-01-30T05:04:25.424Z,4.47
2023-01-30T05:05:27.915Z,4.80
2023-01-30T05:06:30.608Z,4.22
2023-01-30T05:07:32.688Z,5.03
2023-01-30T05:08:34.743Z,4.43
2023-01-30T05:09:36.832Z,4.68
2023-01-30T05:10:38.816Z,5.13
2023-01-30T05:11:40.998Z,5.40
2023-01-30T05:12:43.324Z,5.72
2023-01-30T05:13:45.402Z,6.15
2023-01-30T05:14:47.516Z,5.60
2023-01-30T05:15:49.514Z,5.35
2023-01-30T05:16:51.569Z,6.45
2023-01-30T05:17:53.650Z,5.43
2023-01-30T05:18:55.736Z,5.53
2023-01-30T05:19:57.754Z,5.20
2023-01-30T05:21:04.152Z,5.00
2023-01-30T05:22:06.246Z,4.97
2023-01-30T05:23:08.173Z,5.25
2023-01-30T05:24:10.284Z,4.78
2023-01-30T05:25:12.330Z,5.25
2023-01-30T05:26:15.509Z,5.68
2023-01-30T05:27:17.555Z,5.35
2023-01-30T05:28:19.594Z,6.20
2023-01-30T05:29:21.643Z,6.35
2023-01-30T05:30:23.721Z,6.30
2023-01-30T05:31:25.878Z,6.18
2023-01-30T05:32:30.672Z,5.72
2023-01-30T05:33:32.833Z,5.97
2023-01-30T05:34:34.788Z,5.60
2023-01-30T05:35:36.804Z,5.55
2023-01-30T05:36:38.845Z,4.75
2023-01-30T05:37:40.921Z,5.38
2023-01-30T05:38:43.417Z,12.65
2023-01-30T05:39:45.568Z,8.25
2023-01-30T05:40:47.647Z,5.93
2023-01-30T05:41:49.687Z,5.32
2023-01-30T05:42:51.664Z,6.18
2023-01-30T05:43:53.699Z,6.18
2023-01-30T05:44:55.654Z,5.53
2023-01-30T05:45:58.649Z,5.78
2023-01-30T05:47:00.665Z,6.00
2023-01-30T05:48:02.983Z,5.50
2023-01-30T05:49:05.181Z,5.25
2023-01-30T05:50:07.424Z,4.20
2023-01-30T05:51:16.470Z,5.55
2023-01-30T05:52:18.635Z,4.43
2023-01-30T05:53:21.235Z,4.32
2023-01-30T05:54:23.278Z,5.22
2023-01-30T05:55:25.408Z,5.53
2023-01-30T05:56:27.621Z,5.53
2023-01-30T05:57:29.683Z,5.78
2023-01-30T05:58:32.384Z,6.38
2023-01-30T05:59:34.452Z,6.03
2023-01-30T06:00:36.536Z,21.67
2023-01-30T06:01:38.613Z,6.70
2023-01-30T06:02:40.659Z,5.40
2023-01-30T06:03:42.782Z,5.93
2023-01-30T06:04:44.759Z,6.70
2023-01-30T06:05:46.944Z,6.25
2023-01-30T06:06:49.530Z,5.68
2023-01-30T06:07:51.554Z,5.45
2023-01-30T06:08:54.355Z,5.47
2023-01-30T06:09:56.410Z,5.28
2023-01-30T06:11:02.149Z,5.65
2023-01-30T06:12:04.269Z,5.28
2023-01-30T06:13:06.266Z,5.85
2023-01-30T06:14:08.234Z,5.13
2023-01-30T06:15:10.561Z,6.10
2023-01-30T06:16:14.298Z,6.30
2023-01-30T06:17:16.393Z,7.63
2023-01-30T06:18:18.499Z,7.65
2023-01-30T06:19:20.623Z,6.57
2023-01-30T06:20:22.557Z,6.47
2023-01-30T06:21:24.673Z,6.50
2023-01-30T06:22:26.696Z,6.57
2023-01-30T06:23:28.712Z,6.07
2023-01-30T06:24:30.647Z,5.70
2023-01-30T06:25:32.756Z,6.28
2023-01-30T06:26:34.847Z,6.38
2023-01-30T06:27:36.966Z,6.38
2023-01-30T06:28:38.951Z,6.22
2023-01-30T06:29:40.869Z,7.18
2023-01-30T06:30:43.157Z,8.52
2023-01-30T06:31:45.200Z,6.63
2023-01-30T06:32:50.163Z,6.22
2023-01-30T06:33:52.273Z,6.43
2023-01-30T06:34:54.326Z,7.25
2023-01-30T06:35:56.322Z,6.70
2023-01-30T06:36:58.309Z,7.55
2023-01-30T06:38:00.440Z,7.40
2023-01-30T06:39:02.474Z,7.40
2023-01-30T06:40:04.714Z,7.07
2023-01-30T06:41:06.820Z,9.32
2023-01-30T06:42:08.785Z,7.00
2023-01-30T06:43:11.044Z,6.93
2023-01-30T06:44:13.116Z,5.80
2023-01-30T06:45:17.689Z,6.10
2023-01-30T06:46:19.919Z,7.05
2023-01-30T06:47:21.884Z,5.95
2023-01-30T06:48:23.936Z,6.78
2023-01-30T06:49:25.965Z,7.47
2023-01-30T06:50:28.582Z,6.70
2023-01-30T06:51:30.792Z,7.82
2023-01-30T06:52:32.764Z,6.72
2023-01-30T06:53:34.801Z,7.47
2023-01-30T06:54:36.939Z,6.50
2023-01-30T06:55:39.017Z,7.15
2023-01-30T06:56:41.019Z,8.10
2023-01-30T06:57:43.578Z,6.68
2023-01-30T06:58:45.974Z,7.22
2023-01-30T06:59:48.206Z,7.10
2023-01-30T07:00:50.263Z,7.05
2023-01-30T07:01:52.301Z,6.35
2023-01-30T07:02:54.389Z,6.35
2023-01-30T07:03:56.577Z,6.38
2023-01-30T07:04:58.621Z,7.75
2023-01-30T07:06:00.707Z,6.85
2023-01-30T07:07:02.847Z,7.22
2023-01-30T07:08:04.904Z,7.50
2023-01-30T07:09:06.859Z,9.82
2023-01-30T07:10:09.487Z,8.00
2023-01-30T07:11:11.709Z,7.97
2023-01-30T07:12:13.685Z,6.93
2023-01-30T07:13:16.029Z,6.78
2023-01-30T07:14:18.050Z,6.47
2023-01-30T07:15:20.380Z,5.65
2023-01-30T07:16:29.021Z,6.00
2023-01-30T07:17:31.253Z,6.03
2023-01-30T07:18:33.402Z,5.78
2023-01-30T07:19:35.450Z,5.32
2023-01-30T07:20:37.494Z,6.35
2023-01-30T07:21:39.489Z,6.72
2023-01-30T07:22:41.586Z,36.60
2023-01-30T07:23:43.965Z,6.43
2023-01-30T07:24:45.945Z,7.40
2023-01-30T07:25:48.025Z,6.85
2023-01-30T07:26:50.067Z,5.72
2023-01-30T07:27:52.539Z,5.53
2023-01-30T07:28:54.604Z,5.25
2023-01-30T07:29:56.660Z,5.30
2023-01-30T07:31:02.336Z,5.10
2023-01-30T07:32:05.520Z,5.90
2023-01-30T07:33:07.723Z,5.50
2023-01-30T07:34:09.801Z,5.93
2023-01-30T07:35:11.841Z,4.90
2023-01-30T07:36:13.938Z,4.57
2023-01-30T07:37:16.023Z,5.38
2023-01-30T07:38:18.083Z,4.50
2023-01-30T07:39:20.061Z,5.72
2023-01-30T07:40:22.187Z,5.57
2023-01-30T07:41:24.267Z,5.38
2023-01-30T07:42:26.302Z,5.90
2023-01-30T07:43:28.360Z,4.93
2023-01-30T07:44:30.844Z,5.90
2023-01-30T07:45:37.390Z,6.57
2023-01-30T07:46:39.382Z,6.57
2023-01-30T07:47:41.384Z,7.47
2023-01-30T07:48:44.581Z,6.80
2023-01-30T07:49:46.615Z,6.82
2023-01-30T07:50:48.839Z,6.60
2023-01-30T07:51:50.848Z,6.75
2023-01-30T07:52:52.912Z,7.53
2023-01-30T07:53:54.889Z,7.93
2023-01-30T07:54:56.869Z,6.45
2023-01-30T07:55:59.659Z,7.10
2023-01-30T07:57:01.635Z,6.28
2023-01-30T07:58:04.262Z,5.90
2023-01-30T07:59:06.340Z,5.72
2023-01-30T08:00:11.072Z,6.30
2023-01-30T08:01:13.394Z,6.57
2023-01-30T08:02:15.512Z,9.32
2023-01-30T08:03:17.631Z,5.68
2023-01-30T08:04:19.670Z,4.50
2023-01-30T08:05:21.755Z,5.47
2023-01-30T08:06:23.814Z,5.72
2023-01-30T08:07:25.844Z,5.38
2023-01-30T08:08:27.881Z,6.32
2023-01-30T08:09:29.989Z,4.40
2023-01-30T08:10:32.041Z,5.43
2023-01-30T08:11:34.480Z,11.02
2023-01-30T08:12:36.513Z,8.48
2023-01-30T08:13:38.537Z,6.32
2023-01-30T08:14:40.525Z,6.75
2023-01-30T08:15:42.519Z,6.30
2023-01-30T08:16:44.830Z,8.27
2023-01-30T08:17:53.460Z,7.00
2023-01-30T08:18:55.505Z,8.88
2023-01-30T08:19:57.555Z,13.32
2023-01-30T08:21:00.414Z,9.05
2023-01-30T08:22:02.515Z,7.88
2023-01-30T08:23:04.637Z,7.07
2023-01-30T08:24:06.967Z,7.00
2023-01-30T08:25:09.082Z,6.97
2023-01-30T08:26:11.210Z,5.90
2023-01-30T08:27:13.289Z,5.95
2023-01-30T08:28:15.332Z,5.80
2023-01-30T08:29:17.497Z,5.80
2023-01-30T08:30:20.002Z,7.60
2023-01-30T08:31:22.363Z,6.93
2023-01-30T08:32:24.522Z,8.05
2023-01-30T08:33:26.551Z,7.40
2023-01-30T08:34:28.697Z,7.90
2023-01-30T08:35:33.630Z,7.75
2023-01-30T08:36:35.621Z,7.53
2023-01-30T08:37:39.382Z,7.40
2023-01-30T08:38:41.445Z,7.05
2023-01-30T08:39:43.428Z,7.80
2023-01-30T08:40:45.436Z,6.47
2023-01-30T08:41:47.409Z,7.88
2023-01-30T08:42:49.533Z,7.10
2023-01-30T08:43:51.545Z,5.90
2023-01-30T08:44:53.559Z,6.78
2023-01-30T08:45:56.402Z,7.53
2023-01-30T08:46:58.435Z,8.18
2023-01-30T08:48:01.568Z,7.60
2023-01-30T08:49:03.585Z,7.55
2023-01-30T08:50:05.830Z,7.55
2023-01-30T08:51:07.925Z,7.15
2023-01-30T08:52:10.332Z,7.40
2023-01-30T08:53:12.303Z,8.02
2023-01-30T08:54:14.416Z,7.60
2023-01-30T08:55:16.437Z,7.05
2023-01-30T08:56:18.408Z,7.63
2023-01-30T08:57:20.461Z,7.43
2023-01-30T08:58:22.851Z,6.30
2023-01-30T08:59:24.945Z,5.25
2023-01-30T09:00:27.696Z,6.38
2023-01-30T09:01:29.805Z,5.93
2023-01-30T09:02:31.980Z,5.93
2023-01-30T09:03:34.017Z,5.90
2023-01-30T09:04:36.008Z,6.45
2023-01-30T09:05:38.237Z,6.22
2023-01-30T09:06:40.305Z,6.30
2023-01-30T09:07:42.572Z,6.28
2023-01-30T09:08:44.552Z,6.28
2023-01-30T09:09:46.616Z,6.47
2023-01-30T09:10:48.648Z,6.90
2023-01-30T09:11:50.782Z,6.40
2023-01-30T09:12:52.795Z,5.95
2023-01-30T09:13:54.786Z,6.30
2023-01-30T09:14:58.611Z,4.90
2023-01-30T09:16:00.663Z,6.00
2023-01-30T09:17:02.702Z,6.50
2023-01-30T09:18:05.362Z,5.60
2023-01-30T09:19:07.397Z,5.47
2023-01-30T09:20:09.756Z,6.13
2023-01-30T09:21:12.289Z,6.45
2023-01-30T09:22:14.322Z,6.38
2023-01-30T09:23:16.348Z,5.60
2023-01-30T09:24:18.454Z,5.68
2023-01-30T09:25:20.560Z,5.88
2023-01-30T09:26:22.839Z,5.85
2023-01-30T09:27:24.862Z,4.97
2023-01-30T09:28:27.257Z,5.47
2023-01-30T09:29:29.383Z,6.40
2023-01-30T09:30:31.679Z,5.55
2023-01-30T09:31:33.811Z,5.82
2023-01-30T09:32:37.724Z,5.88
2023-01-30T09:33:39.809Z,5.32
2023-01-30T09:34:41.901Z,4.97
2023-01-30T09:35:47.075Z,5.18
2023-01-30T09:36:49.122Z,6.07
2023-01-30T09:37:53.258Z,5.68
2023-01-30T09:38:55.209Z,5.20
2023-01-30T09:39:57.253Z,5.35
2023-01-30T09:40:59.189Z,5.13
2023-01-30T09:42:13.351Z,5.13
2023-01-30T09:43:36.317Z,4.88
2023-01-30T09:44:44.323Z,5.20
2023-01-30T09:45:52.348Z,5.35
2023-01-30T09:47:03.085Z,4.50
2023-01-30T09:48:07.766Z,4.38
2023-01-30T09:49:22.906Z,5.40
2023-01-30T09:50:43.442Z,4.78
2023-01-30T09:51:45.765Z,4.38
2023-01-30T09:52:58.125Z,5.63
2023-01-30T09:54:04.765Z,4.50
2023-01-30T09:55:15.942Z,4.65
2023-01-30T09:56:18.031Z,4.47
2023-01-30T09:57:22.606Z,3.63
2023-01-30T09:58:25.929Z,3.83
2023-01-30T09:59:46.639Z,4.13
2023-01-30T10:00:49.919Z,3.97
2023-01-30T10:01:59.019Z,3.67
2023-01-30T10:03:15.433Z,4.18
2023-01-30T10:04:23.408Z,3.67
2023-01-30T10:05:30.128Z,3.55
2023-01-30T10:06:36.039Z,6.20
2023-01-30T10:07:44.277Z,3.95
2023-01-30T10:08:46.299Z,3.25
2023-01-30T10:09:48.400Z,4.82
2023-01-30T10:11:10.132Z,4.82
2023-01-30T10:12:18.783Z,8.30
2023-01-30T10:13:37.113Z,4.40
2023-01-30T10:14:57.751Z,3.85
2023-01-30T10:16:14.990Z,3.67
2023-01-30T10:17:23.102Z,3.35
2023-01-30T10:18:40.087Z,4.07
2023-01-30T10:20:14.528Z,3.85
2023-01-30T10:21:31.696Z,4.63
2023-01-30T10:22:36.396Z,3.30
2023-01-30T10:23:57.313Z,4.03
2023-01-30T10:25:18.127Z,4.90
2023-01-30T10:26:22.188Z,3.80
2023-01-30T10:27:25.945Z,3.58
2023-01-30T10:28:28.042Z,3.88
2023-01-30T10:29:33.028Z,4.32
2023-01-30T10:30:35.122Z,3.67
2023-01-30T10:31:45.309Z,5.53
2023-01-30T10:32:50.149Z,3.85
2023-01-30T10:34:01.357Z,3.40
2023-01-30T10:35:06.597Z,4.80
2023-01-30T10:36:14.871Z,4.03
2023-01-30T10:37:43.221Z,5.28
2023-01-30T10:38:48.277Z,4.80
2023-01-30T10:40:05.980Z,5.40
2023-01-30T10:41:11.009Z,6.07
2023-01-30T10:42:14.559Z,5.75
2023-01-30T10:43:24.019Z,5.28
2023-01-30T10:44:26.245Z,4.95
2023-01-30T10:45:48.490Z,4.57
2023-01-30T10:46:59.575Z,5.68
2023-01-30T10:48:01.600Z,5.82
2023-01-30T10:49:16.218Z,12.05
2023-01-30T10:50:18.769Z,4.88
2023-01-30T10:51:26.195Z,5.38
2023-01-30T10:52:31.348Z,4.97
2023-01-30T10:53:38.014Z,5.07
2023-01-30T10:54:47.204Z,5.28
2023-01-30T10:55:51.630Z,5.90
2023-01-30T10:56:56.584Z,4.65
2023-01-30T10:58:04.061Z,4.85
2023-01-30T10:59:14.840Z,4.25
2023-01-30T11:00:25.260Z,5.60
2023-01-30T11:01:38.220Z,4.03
2023-01-30T11:02:58.474Z,7.30
2023-01-30T11:04:04.690Z,4.88
2023-01-30T11:05:14.692Z,5.57
2023-01-30T11:06:26.289Z,5.63
2023-01-30T11:07:30.684Z,5.00
2023-01-30T11:08:33.711Z,5.25
2023-01-30T11:09:43.008Z,5.15
2023-01-30T11:10:45.040Z,5.53
2023-01-30T11:11:53.907Z,6.15
2023-01-30T11:13:00.799Z,5.55
2023-01-30T11:14:03.265Z,5.10
2023-01-30T11:15:05.441Z,5.32
2023-01-30T11:16:08.474Z,6.38
2023-01-30T11:17:16.286Z,5.35
2023-01-30T11:19:14.711Z,6.20
2023-01-30T11:19:42.659Z,5.10
2023-01-30T11:20:47.823Z,5.50
2023-01-30T11:21:52.131Z,5.88
2023-01-30T11:23:07.710Z,7.25
2023-01-30T11:24:14.324Z,11.85
2023-01-30T11:25:18.530Z,39.92
2023-01-30T11:26:20.980Z,19.85
2023-01-30T11:27:29.407Z,11.35
2023-01-30T11:28:35.697Z,8.63
2023-01-30T11:29:40.760Z,9.75
2023-01-30T11:30:42.985Z,14.93
2023-01-30T11:31:49.535Z,16.45
2023-01-30T11:32:51.657Z,14.90
2023-01-30T11:34:06.790Z,7.70
2023-01-30T11:35:08.828Z,6.22
2023-01-30T11:36:25.165Z,6.32
2023-01-30T11:37:31.913Z,6.53
2023-01-30T11:38:35.313Z,5.72
2023-01-30T11:39:37.313Z,5.82
2023-01-30T11:40:41.076Z,5.45
2023-01-30T11:41:43.701Z,5.63
2023-01-30T11:42:50.046Z,6.32
2023-01-30T11:43:52.177Z,6.25
2023-01-30T11:45:15.622Z,5.45
2023-01-30T11:46:19.861Z,5.57
2023-01-30T11:47:26.115Z,5.50
2023-01-30T11:48:33.238Z,6.28
2023-01-30T11:50:10.017Z,5.28
2023-01-30T11:51:16.958Z,6.18
2023-01-30T11:52:26.910Z,9.77
2023-01-30T11:53:28.991Z,5.15
2023-01-30T11:54:34.039Z,5.15
2023-01-30T11:55:37.183Z,5.20
2023-01-30T11:56:40.624Z,6.43
2023-01-30T11:57:49.273Z,6.22
2023-01-30T11:58:59.046Z,6.20
2023-01-30T12:00:01.331Z,5.53
2023-01-30T12:01:12.927Z,5.40
2023-01-30T12:02:32.515Z,6.22
2023-01-30T12:03:39.575Z,6.75
2023-01-30T12:04:45.485Z,6.10
2023-01-30T12:05:47.709Z,6.50
2023-01-30T12:07:04.276Z,6.25
2023-01-30T12:08:31.123Z,5.20
2023-01-30T12:09:42.530Z,4.88
2023-01-30T12:10:45.430Z,6.45
2023-01-30T12:11:47.718Z,5.25
2023-01-30T12:12:52.221Z,5.25
2023-01-30T12:13:55.850Z,6.07
2023-01-30T12:15:07.176Z,5.68
2023-01-30T12:16:09.220Z,5.65
2023-01-30T12:17:14.040Z,6.20
2023-01-30T12:18:23.438Z,5.75
2023-01-30T12:19:31.425Z,6.18
2023-01-30T12:20:51.446Z,5.95
2023-01-30T12:22:01.937Z,10.65
2023-01-30T12:23:03.903Z,7.05
2023-01-30T12:24:12.708Z,7.88
2023-01-30T12:25:21.247Z,9.95
2023-01-30T12:26:37.887Z,5.93
2023-01-30T12:27:53.504Z,5.60
2023-01-30T12:29:00.361Z,5.28
2023-01-30T12:30:05.284Z,4.68
2023-01-30T12:31:26.084Z,5.43
2023-01-30T12:32:29.273Z,5.90
2023-01-30T12:33:33.121Z,6.32
2023-01-30T12:34:35.250Z,6.35
2023-01-30T12:35:37.371Z,7.68
2023-01-30T12:36:51.608Z,5.57
2023-01-30T12:37:57.031Z,6.03
2023-01-30T12:39:06.685Z,5.10
2023-01-30T12:40:25.060Z,5.22
2023-01-30T12:41:36.178Z,5.53
2023-01-30T12:42:44.212Z,4.85
2023-01-30T12:44:10.172Z,5.57
2023-01-30T12:45:12.159Z,5.80
2023-01-30T12:46:23.572Z,5.68
2023-01-30T12:48:01.316Z,5.57
2023-01-30T12:49:20.438Z,5.13
2023-01-30T12:50:51.509Z,4.57
2023-01-30T12:52:12.277Z,4.97
2023-01-30T12:53:31.853Z,5.00
2023-01-30T12:54:40.230Z,6.07
2023-01-30T12:55:42.307Z,8.85
2023-01-30T12:57:03.378Z,7.88
2023-01-30T12:58:08.549Z,7.47
2023-01-30T12:59:13.365Z,8.57
2023-01-30T13:00:30.788Z,9.00
2023-01-30T13:01:33.031Z,10.10
2023-01-30T13:03:02.008Z,9.18
2023-01-30T13:04:06.714Z,8.90
2023-01-30T13:05:27.632Z,7.70
2023-01-30T13:06:32.600Z,5.90
2023-01-30T13:07:50.008Z,5.45
2023-01-30T13:09:01.504Z,7.18
2023-01-30T13:10:04.379Z,5.38
2023-01-30T13:11:29.299Z,6.60
2023-01-30T13:12:54.571Z,7.13
2023-01-30T13:14:05.124Z,7.82
2023-01-30T13:15:21.377Z,9.80
2023-01-30T13:16:36.799Z,9.05
2023-01-30T13:17:38.906Z,10.13
2023-01-30T13:18:50.465Z,8.90
2023-01-30T13:20:11.381Z,6.95
2023-01-30T13:21:25.773Z,8.52
2023-01-30T13:22:30.843Z,9.40
2023-01-30T13:23:49.972Z,7.28
2023-01-30T13:24:54.743Z,8.68
2023-01-30T13:25:58.800Z,7.07
2023-01-30T13:27:03.815Z,6.65
2023-01-30T13:28:26.119Z,6.68
2023-01-30T13:29:31.207Z,6.78
2023-01-30T13:30:34.419Z,7.32
2023-01-30T13:31:39.158Z,7.53
2023-01-30T13:32:43.686Z,7.43
2023-01-30T13:33:47.253Z,7.40
2023-01-30T13:34:49.789Z,7.68
2023-01-30T13:35:54.323Z,9.18
2023-01-30T13:37:15.948Z,8.98
2023-01-30T13:38:22.178Z,6.32
2023-01-30T13:39:30.803Z,5.82
2023-01-30T13:40:39.594Z,5.72
2023-01-30T13:41:44.287Z,6.47
2023-01-30T13:42:52.904Z,5.55
2023-01-30T13:43:55.364Z,5.78
2023-01-30T13:44:58.467Z,5.63
2023-01-30T13:46:02.555Z,5.32
2023-01-30T13:47:22.911Z,5.80
2023-01-30T13:48:43.737Z,4.72
2023-01-30T13:49:52.938Z,5.40
2023-01-30T13:51:15.289Z,7.30
2023-01-30T13:52:25.230Z,8.07
2023-01-30T13:53:33.768Z,9.18
2023-01-30T13:54:35.683Z,8.98
2023-01-30T13:55:48.030Z,8.00
2023-01-30T13:57:08.955Z,7.05
2023-01-30T13:58:11.011Z,7.07
2023-01-30T13:59:13.060Z,7.82
2023-01-30T14:00:41.580Z,7.05
2023-01-30T14:02:09.803Z,7.70
2023-01-30T14:03:13.749Z,7.03
2023-01-30T14:04:31.052Z,6.15
2023-01-30T14:05:51.735Z,6.75
2023-01-30T14:06:53.895Z,7.03
2023-01-30T14:07:58.896Z,8.85
2023-01-30T14:09:03.297Z,6.95
2023-01-30T14:10:11.207Z,6.32
2023-01-30T14:11:25.515Z,5.05
2023-01-30T14:12:28.924Z,5.30
2023-01-30T14:13:32.421Z,5.60
2023-01-30T14:14:40.730Z,5.13
2023-01-30T14:15:53.474Z,6.22
2023-01-30T14:16:57.005Z,5.43
2023-01-30T14:18:02.521Z,5.82
2023-01-30T14:19:19.941Z,5.70
2023-01-30T14:20:22.251Z,5.57
2023-01-30T14:21:25.158Z,5.25
2023-01-30T14:22:27.301Z,7.65
2023-01-30T14:23:32.289Z,8.85
2023-01-30T14:24:34.345Z,6.40
2023-01-30T14:25:43.762Z,6.32
2023-01-30T14:26:48.615Z,6.95
2023-01-30T14:27:53.584Z,5.97
2023-01-30T14:28:56.056Z,12.43
2023-01-30T14:29:58.187Z,8.10
2023-01-30T14:31:01.695Z,13.75
2023-01-30T14:32:24.280Z,41.17
2023-01-30T14:33:26.412Z,39.28
2023-01-30T14:34:57.582Z,99.28